createdAt,value
2022-10-19T00:01:26.305Z,9.65
2022-10-19T00:04:29.085Z,9.58
2022-10-19T00:07:31.478Z,9.56
2022-10-19T00:10:34.261Z,9.66
2022-10-19T00:13:36.992Z,9.38
2022-10-19T00:16:39.152Z,9.36
2022-10-19T00:19:41.287Z,9.43
2022-10-19T00:22:43.463Z,9.52
2022-10-19T00:25:56.009Z,9.33
2022-10-19T00:28:58.437Z,9.33
2022-10-19T00:32:00.589Z,9.40
2022-10-19T00:35:03.743Z,9.41
2022-10-19T00:38:05.861Z,9.38
2022-10-19T00:41:08.525Z,9.38
2022-10-19T00:44:13.754Z,9.21
2022-10-19T00:47:16.642Z,9.20
2022-10-19T00:50:18.887Z,9.26
2022-10-19T00:53:21.400Z,9.25
2022-10-19T00:56:23.707Z,9.34
2022-10-19T00:59:27.132Z,9.34
2022-10-19T01:02:29.357Z,9.24
2022-10-19T01:05:32.974Z,9.11
2022-10-19T01:08:35.118Z,9.07
2022-10-19T01:11:43.082Z,8.96
2022-10-19T01:15:06.591Z,9.03
2022-10-19T01:18:40.352Z,9.08
2022-10-19T01:21:50.996Z,9.17
2022-10-19T01:25:15.073Z,9.31
2022-10-19T01:28:20.080Z,9.22
2022-10-19T01:31:44.618Z,9.38
2022-10-19T01:34:52.196Z,9.35
2022-10-19T01:38:12.746Z,9.42
2022-10-19T01:41:23.778Z,9.43
2022-10-19T01:44:40.044Z,9.26
2022-10-19T01:47:59.547Z,9.40
2022-10-19T01:51:12.819Z,9.50
2022-10-19T01:54:16.001Z,9.44
2022-10-19T01:57:23.981Z,9.52
2022-10-19T02:00:27.024Z,9.45
2022-10-19T02:03:29.544Z,9.36
2022-10-19T02:06:31.742Z,9.47
2022-10-19T02:09:33.939Z,9.53
2022-10-19T02:12:37.015Z,9.53
2022-10-19T02:15:41.542Z,9.47
2022-10-19T02:18:46.320Z,9.41
2022-10-19T02:21:48.931Z,9.30
2022-10-19T02:24:51.097Z,9.27
2022-10-19T02:27:53.249Z,9.26
2022-10-19T02:30:55.863Z,9.20
2022-10-19T02:33:58.329Z,9.16
2022-10-19T02:37:00.519Z,9.26
2022-10-19T02:40:03.574Z,9.37
2022-10-19T02:43:10.672Z,9.39
2022-10-19T02:46:38.060Z,9.50
2022-10-19T02:49:41.190Z,9.41
2022-10-19T02:52:43.339Z,9.51
2022-10-19T02:55:47.990Z,9.27
2022-10-19T02:58:50.123Z,9.39
2022-10-19T03:01:52.712Z,9.14
2022-10-19T03:04:54.825Z,9.20
2022-10-19T03:07:57.033Z,9.27
2022-10-19T03:10:59.297Z,9.43
2022-10-19T03:14:01.675Z,9.67
2022-10-19T03:17:04.266Z,9.60
2022-10-19T03:20:06.962Z,9.63
2022-10-19T03:23:09.133Z,9.70
2022-10-19T03:26:14.476Z,9.74
2022-10-19T03:29:16.618Z,9.86
2022-10-19T03:32:18.764Z,9.96
2022-10-19T03:35:20.931Z,9.89
2022-10-19T03:38:23.073Z,9.79
2022-10-19T03:41:27.674Z,9.87
2022-10-19T03:44:29.815Z,9.97
2022-10-19T03:47:32.239Z,10.03
2022-10-19T03:50:34.700Z,9.83
2022-10-19T03:53:37.581Z,9.69
2022-10-19T03:56:39.723Z,9.79
2022-10-19T03:59:41.842Z,9.81
2022-10-19T04:02:44.036Z,9.62
2022-10-19T04:05:46.150Z,9.47
2022-10-19T04:08:49.206Z,9.47
2022-10-19T04:11:51.459Z,9.39
2022-10-19T04:14:57.272Z,9.43
2022-10-19T04:17:59.765Z,9.34
2022-10-19T04:21:04.684Z,9.27
2022-10-19T04:24:17.665Z,9.23
2022-10-19T04:27:19.850Z,9.21
2022-10-19T04:30:21.986Z,9.15
2022-10-19T04:33:24.150Z,9.15
2022-10-19T04:36:26.415Z,9.02
2022-10-19T04:39:28.536Z,9.01
2022-10-19T04:42:30.745Z,9.06
2022-10-19T04:45:35.444Z,9.13
2022-10-19T04:48:38.802Z,9.08
2022-10-19T04:51:40.942Z,8.82
2022-10-19T04:54:43.062Z,8.72
2022-10-19T04:57:45.216Z,8.68
2022-10-19T05:00:47.456Z,8.65
2022-10-19T05:07:04.153Z,8.57
2022-10-19T05:10:08.841Z,8.48
2022-10-19T05:13:10.969Z,8.40
2022-10-19T05:16:19.045Z,8.63
2022-10-19T05:19:21.352Z,8.79
2022-10-19T05:22:23.659Z,8.72
2022-10-19T05:25:25.837Z,8.67
2022-10-19T05:28:28.529Z,8.91
2022-10-19T05:31:32.694Z,8.93
2022-10-19T05:34:34.841Z,9.01
2022-10-19T05:37:37.205Z,9.18
2022-10-19T05:40:44.943Z,9.19
2022-10-19T05:43:47.940Z,8.98
2022-10-19T05:46:51.474Z,9.10
2022-10-19T05:49:53.595Z,9.22
2022-10-19T05:52:55.679Z,9.25
2022-10-19T05:55:57.873Z,9.30
2022-10-19T05:59:02.132Z,9.50
2022-10-19T06:02:04.326Z,9.74
2022-10-19T06:05:07.167Z,9.85
2022-10-19T06:08:09.276Z,9.66
2022-10-19T06:11:14.706Z,9.76
2022-10-19T06:14:16.882Z,9.87
2022-10-19T06:17:19.014Z,10.00
2022-10-19T06:20:21.148Z,10.29
2022-10-19T06:23:23.362Z,10.53
2022-10-19T06:26:26.534Z,10.56
2022-10-19T06:29:28.656Z,10.78
2022-10-19T06:32:30.899Z,11.01
2022-10-19T06:35:33.070Z,10.97
2022-10-19T06:38:35.269Z,11.22
2022-10-19T06:41:37.470Z,11.36
2022-10-19T06:44:39.579Z,11.51
2022-10-19T06:47:41.830Z,11.70
2022-10-19T06:50:44.023Z,11.65
2022-10-19T06:53:46.244Z,11.97
2022-10-19T06:59:55.660Z,11.95
2022-10-19T07:02:59.221Z,12.07
2022-10-19T07:06:03.682Z,12.25
2022-10-19T07:09:06.252Z,12.47
2022-10-19T07:12:10.772Z,12.72
2022-10-19T07:15:12.886Z,12.79
2022-10-19T07:18:15.326Z,13.10
2022-10-19T07:21:18.281Z,13.12
2022-10-19T07:24:20.455Z,13.29
2022-10-19T07:27:22.599Z,13.23
2022-10-19T07:30:24.806Z,13.19
2022-10-19T07:33:27.525Z,13.40
2022-10-19T07:36:31.464Z,13.66
2022-10-19T07:39:33.621Z,13.64
2022-10-19T07:42:37.703Z,13.93
2022-10-19T07:45:39.824Z,13.95
2022-10-19T07:48:42.642Z,14.05
2022-10-19T07:51:45.645Z,14.07
2022-10-19T07:54:49.523Z,14.13
2022-10-19T07:57:51.680Z,14.36
2022-10-19T08:01:00.367Z,14.60
2022-10-19T08:07:24.667Z,14.62
2022-10-19T08:10:26.856Z,14.68
2022-10-19T08:13:29.038Z,14.79
2022-10-19T08:16:38.839Z,15.06
2022-10-19T08:19:43.504Z,15.31
2022-10-19T08:22:46.842Z,15.01
2022-10-19T08:25:49.783Z,15.20
2022-10-19T08:28:51.937Z,15.28
2022-10-19T08:31:54.422Z,15.58
2022-10-19T08:34:56.661Z,15.48
2022-10-19T08:37:59.108Z,15.57
2022-10-19T08:41:15.229Z,16.02
2022-10-19T08:44:41.769Z,15.81
2022-10-19T08:48:11.020Z,15.89
2022-10-19T08:51:13.934Z,16.08
2022-10-19T08:54:17.757Z,15.98
2022-10-19T08:57:38.057Z,16.19
2022-10-19T09:00:50.187Z,16.58
2022-10-19T09:04:30.699Z,16.67
2022-10-19T09:07:44.995Z,16.32
2022-10-19T09:10:50.556Z,16.52
2022-10-19T09:14:05.098Z,16.54
2022-10-19T09:17:13.158Z,16.87
2022-10-19T09:20:19.702Z,16.95
2022-10-19T09:23:34.678Z,16.87
2022-10-19T09:26:54.226Z,16.59
2022-10-19T09:30:03.843Z,16.92
2022-10-19T09:33:06.652Z,17.34
2022-10-19T09:36:14.999Z,17.52
2022-10-19T09:39:29.555Z,17.81
2022-10-19T09:42:34.305Z,17.67
2022-10-19T09:45:39.341Z,17.53
2022-10-19T09:48:53.375Z,17.36
2022-10-19T09:51:55.498Z,17.39
2022-10-19T09:55:07.425Z,17.51
2022-10-19T09:58:18.188Z,17.79
2022-10-19T10:01:46.821Z,17.70
2022-10-19T10:04:57.491Z,17.89
2022-10-19T10:07:59.835Z,17.80
2022-10-19T10:11:10.781Z,17.96
2022-10-19T10:14:15.854Z,18.02
2022-10-19T10:17:22.927Z,18.38
2022-10-19T10:20:28.473Z,18.65
2022-10-19T10:23:34.018Z,18.57
2022-10-19T10:26:50.346Z,18.75
2022-10-19T10:33:13.550Z,18.95
2022-10-19T10:36:27.837Z,18.95
2022-10-19T10:39:30.605Z,18.59
2022-10-19T10:42:37.465Z,18.26
2022-10-19T10:45:47.779Z,18.05
2022-10-19T10:48:58.732Z,17.80
2022-10-19T10:52:05.389Z,17.99
2022-10-19T10:55:10.303Z,18.40
2022-10-19T10:58:19.912Z,18.67
2022-10-19T11:01:24.020Z,18.88
2022-10-19T11:04:41.315Z,18.79
2022-10-19T11:07:46.809Z,19.07
2022-10-19T11:11:07.787Z,19.08
2022-10-19T11:14:28.356Z,18.47
2022-10-19T11:17:33.448Z,18.43
2022-10-19T11:20:37.173Z,18.22
2022-10-19T11:23:51.775Z,17.99
2022-10-19T11:26:59.905Z,18.12
2022-10-19T11:30:17.697Z,18.37
2022-10-19T11:34:02.516Z,18.07
2022-10-19T11:37:13.737Z,18.16
2022-10-19T11:40:59.680Z,18.08
2022-10-19T11:44:19.079Z,18.20
2022-10-19T11:47:42.091Z,17.98
2022-10-19T11:50:58.932Z,18.08
2022-10-19T11:54:56.455Z,17.85
2022-10-19T11:58:45.420Z,17.74
2022-10-19T12:02:06.093Z,17.76
2022-10-19T12:05:13.704Z,17.81
2022-10-19T12:11:45.808Z,17.54
2022-10-19T12:14:52.065Z,17.60
2022-10-19T12:17:57.834Z,17.29
2022-10-19T12:21:02.788Z,17.60
2022-10-19T12:24:14.971Z,17.61
2022-10-19T12:27:18.708Z,17.43
2022-10-19T12:30:23.174Z,17.29
2022-10-19T12:33:31.630Z,17.56
2022-10-19T12:36:33.703Z,17.62
2022-10-19T12:39:35.979Z,17.54
2022-10-19T12:42:51.996Z,17.30
2022-10-19T12:46:03.572Z,17.26
2022-10-19T12:49:30.477Z,17.43
2022-10-19T12:52:44.706Z,17.43
2022-10-19T12:55:47.332Z,17.45
2022-10-19T12:58:53.171Z,17.12
2022-10-19T13:01:56.698Z,17.07
2022-10-19T13:04:59.233Z,17.17
2022-10-19T13:08:04.796Z,17.07
2022-10-19T13:11:14.694Z,17.29
2022-10-19T13:14:19.608Z,17.27
2022-10-19T13:17:34.406Z,17.27
2022-10-19T13:23:44.966Z,17.20
2022-10-19T13:26:47.117Z,17.10
2022-10-19T13:29:49.518Z,17.09
2022-10-19T13:32:52.193Z,16.94
2022-10-19T13:36:00.532Z,16.88
2022-10-19T13:39:06.042Z,16.83
2022-10-19T13:42:24.035Z,16.77
2022-10-19T13:45:26.896Z,16.69
2022-10-19T13:48:37.561Z,16.63
2022-10-19T13:51:51.727Z,16.58
2022-10-19T13:55:18.576Z,16.67
2022-10-19T13:58:48.260Z,16.76
2022-10-19T14:01:53.048Z,16.60
2022-10-19T14:05:24.680Z,16.62
2022-10-19T14:09:11.736Z,16.57
2022-10-19T14:12:23.919Z,16.44
2022-10-19T14:15:28.954Z,16.40
2022-10-19T14:18:33.621Z,16.33
2022-10-19T14:21:37.022Z,16.19
2022-10-19T14:24:39.170Z,16.20
2022-10-19T14:27:41.325Z,16.04
2022-10-19T14:30:43.857Z,15.94
2022-10-19T14:33:47.712Z,16.01
2022-10-19T14:36:50.663Z,15.96
2022-10-19T14:39:59.848Z,15.82
2022-10-19T14:43:20.365Z,15.81
2022-10-19T14:46:26.575Z,15.80
2022-10-19T14:49:28.885Z,15.74
2022-10-19T14:52:37.761Z,15.68
2022-10-19T14:55:41.050Z,15.61
2022-10-19T14:59:18.579Z,15.51
2022-10-19T15:02:28.244Z,15.38
2022-10-19T15:05:33.748Z,15.26
2022-10-19T15:08:39.021Z,15.27
2022-10-19T15:11:44.175Z,15.12
2022-10-19T15:14:47.215Z,15.02
2022-10-19T15:18:00.181Z,14.91
2022-10-19T15:21:12.873Z,14.83
2022-10-19T15:24:35.937Z,14.76
2022-10-19T15:27:50.035Z,14.74
2022-10-19T15:31:00.600Z,14.66
2022-10-19T15:34:03.790Z,14.60
2022-10-19T15:37:08.316Z,14.56
2022-10-19T15:40:21.982Z,14.47
2022-10-19T15:43:30.541Z,14.49
2022-10-19T15:46:48.946Z,14.31
2022-10-19T15:49:55.777Z,14.22
2022-10-19T15:52:59.817Z,14.23
2022-10-19T15:59:15.414Z,14.20
2022-10-19T16:02:17.538Z,14.06
2022-10-19T16:05:19.816Z,13.88
2022-10-19T16:08:21.937Z,13.73
2022-10-19T16:11:25.122Z,13.58
2022-10-19T16:14:28.408Z,13.53
2022-10-19T16:17:30.638Z,13.44
2022-10-19T16:20:32.824Z,13.44
2022-10-19T16:23:41.092Z,13.46
2022-10-19T16:26:44.582Z,13.36
2022-10-19T16:29:46.708Z,13.29
2022-10-19T16:32:49.679Z,13.22
2022-10-19T16:35:51.857Z,13.21
2022-10-19T16:38:54.117Z,13.21
2022-10-19T16:41:56.322Z,13.28
2022-10-19T16:44:58.493Z,13.30
2022-10-19T16:48:00.657Z,13.22
2022-10-19T16:51:05.549Z,13.11
2022-10-19T16:54:12.326Z,13.05
2022-10-19T16:57:14.717Z,12.94
2022-10-19T17:00:16.895Z,12.76
2022-10-19T17:03:19.059Z,12.71
2022-10-19T17:06:21.677Z,12.64
2022-10-19T17:09:42.271Z,12.57
2022-10-19T17:12:44.873Z,12.49
2022-10-19T17:15:47.129Z,12.48
2022-10-19T17:18:49.934Z,12.45
2022-10-19T17:21:55.402Z,12.43
2022-10-19T17:24:57.878Z,12.40
2022-10-19T17:28:00.227Z,12.35
2022-10-19T17:31:13.820Z,12.27
2022-10-19T17:34:17.646Z,12.23
2022-10-19T17:37:20.489Z,12.25
2022-10-19T17:40:22.926Z,12.28
2022-10-19T17:43:25.353Z,12.23
2022-10-19T17:46:30.571Z,12.05
2022-10-19T17:49:32.955Z,12.01
2022-10-19T17:52:35.364Z,11.87
2022-10-19T17:55:37.741Z,11.71
2022-10-19T17:58:40.131Z,11.64
2022-10-19T18:01:42.878Z,11.57
2022-10-19T18:04:45.321Z,11.38
2022-10-19T18:07:49.220Z,11.21
2022-10-19T18:11:12.485Z,11.28
2022-10-19T18:14:16.665Z,11.30
2022-10-19T18:17:21.620Z,11.53
2022-10-19T18:20:25.258Z,11.45
2022-10-19T18:23:27.741Z,11.30
2022-10-19T18:26:32.670Z,11.34
2022-10-19T18:29:35.434Z,11.34
2022-10-19T18:32:38.027Z,11.25
2022-10-19T18:35:40.988Z,11.28
2022-10-19T18:38:43.966Z,10.86
2022-10-19T18:41:48.292Z,10.54
2022-10-19T18:44:50.710Z,10.47
2022-10-19T18:47:53.791Z,10.27
2022-10-19T18:50:57.479Z,9.84
2022-10-19T18:53:59.930Z,9.55
2022-10-19T18:57:02.331Z,9.13
2022-10-19T19:00:05.926Z,9.29
2022-10-19T19:03:08.682Z,9.54
2022-10-19T19:06:12.907Z,9.70
2022-10-19T19:09:15.340Z,9.66
2022-10-19T19:12:17.873Z,9.73
2022-10-19T19:15:20.417Z,9.98
2022-10-19T19:18:23.222Z,9.86
2022-10-19T19:21:27.321Z,9.93
2022-10-19T19:24:32.133Z,9.95
2022-10-19T19:27:34.933Z,9.99
2022-10-19T19:30:44.513Z,9.90
2022-10-19T19:33:47.520Z,10.00
2022-10-19T19:36:49.929Z,9.88
2022-10-19T19:39:52.400Z,9.41
2022-10-19T19:42:55.070Z,9.20
2022-10-19T19:46:04.756Z,8.98
2022-10-19T19:49:10.732Z,8.89
2022-10-19T19:52:13.249Z,8.75
2022-10-19T19:55:16.546Z,8.63
2022-10-19T19:58:20.047Z,8.66
2022-10-19T20:01:22.730Z,8.50
2022-10-19T20:04:25.223Z,8.31
2022-10-19T20:07:27.401Z,8.04
2022-10-19T20:10:29.881Z,7.80
2022-10-19T20:13:32.534Z,7.73
2022-10-19T20:16:35.005Z,7.83
2022-10-19T20:19:37.169Z,7.68
2022-10-19T20:22:39.763Z,7.69
2022-10-19T20:25:42.069Z,7.31
2022-10-19T20:28:44.502Z,7.24
2022-10-19T20:31:47.844Z,7.32
2022-10-19T20:34:52.135Z,7.42
2022-10-19T20:37:57.802Z,7.19
2022-10-19T20:41:06.937Z,7.15
2022-10-19T20:44:10.522Z,7.18
2022-10-19T20:47:12.669Z,7.25
2022-10-19T20:50:17.014Z,6.85
2022-10-19T20:53:21.466Z,6.91
2022-10-19T20:56:26.520Z,6.61
2022-10-19T20:59:28.987Z,6.71
2022-10-19T21:02:31.143Z,6.75
2022-10-19T21:05:33.287Z,6.71
2022-10-19T21:08:35.949Z,6.60
2022-10-19T21:11:39.758Z,6.45
2022-10-19T21:14:43.064Z,6.51
2022-10-19T21:17:47.441Z,6.43
2022-10-19T21:20:49.550Z,6.43
2022-10-19T21:23:55.204Z,6.36
2022-10-19T21:26:57.343Z,6.43
2022-10-19T21:29:59.482Z,6.20
2022-10-19T21:33:01.661Z,6.33
2022-10-19T21:36:05.735Z,6.23
2022-10-19T21:39:07.922Z,6.09
2022-10-19T21:42:10.041Z,6.10
2022-10-19T21:45:29.434Z,6.05
2022-10-19T21:48:33.736Z,6.02
2022-10-19T21:51:48.353Z,5.92
2022-10-19T21:54:50.528Z,6.02
2022-10-19T21:57:52.697Z,5.91
2022-10-19T22:00:54.884Z,5.82
2022-10-19T22:04:02.281Z,5.92
2022-10-19T22:07:05.243Z,5.96
2022-10-19T22:10:07.651Z,6.03
2022-10-19T22:13:09.796Z,5.99
2022-10-19T22:16:14.970Z,5.89
2022-10-19T22:19:17.681Z,5.85
2022-10-19T22:22:19.867Z,5.78
2022-10-19T22:25:22.022Z,5.82
2022-10-19T22:28:24.222Z,5.78
2022-10-19T22:31:28.043Z,5.86
2022-10-19T22:34:30.467Z,5.73
2022-10-19T22:37:34.505Z,5.61
2022-10-19T22:40:36.622Z,5.67
2022-10-19T22:43:38.770Z,5.55
2022-10-19T22:46:40.875Z,5.73
2022-10-19T22:49:43.006Z,5.57
2022-10-19T22:52:45.136Z,5.47
2022-10-19T22:55:47.459Z,5.45
2022-10-19T22:58:49.658Z,5.41
2022-10-19T23:01:51.884Z,5.37
2022-10-19T23:04:54.087Z,5.44
2022-10-19T23:07:56.244Z,5.39
2022-10-19T23:10:58.422Z,5.39
2022-10-19T23:14:00.579Z,5.55
2022-10-19T23:17:02.771Z,5.36
2022-10-19T23:20:05.346Z,5.24
2022-10-19T23:23:07.522Z,5.23
2022-10-19T23:26:15.859Z,5.25
2022-10-19T23:29:18.001Z,5.22
2022-10-19T23:32:20.154Z,4.99
2022-10-19T23:35:22.305Z,5.15
2022-10-19T23:38:24.443Z,5.19
2022-10-19T23:41:27.053Z,5.07
2022-10-19T23:44:29.250Z,5.01
2022-10-19T23:47:31.368Z,5.03
2022-10-19T23:50:33.500Z,4.97
2022-10-19T23:53:40.749Z,5.12
2022-10-19T23:56:43.597Z,5.07
2022-10-19T23:59:46.181Z,5.02
